Time;durP1;ratioP1;P1;durP2;ratioP2;P2;SDS_P1;SDS_P2;PMS_P1;PMS_P2;Temp;Humidity;BMP_temperature;BMP_pressure;BME280_temperature;BME280_humidity;BME280_pressure;Samples;Min_cycle;Max_cycle;Signal;HPM_P1;HPM_P2
2022/03/26 00:00:24;;;;;;;91.32;58.60;;;;;;;9.28;52.16;103328.22;5204235;28;20440;-59
2022/03/26 00:02:58;;;;;;;91.65;57.17;;;;;;;9.26;52.23;103337.97;5204506;28;20431;-53
2022/03/26 00:05:30;;;;;;;87.32;57.08;;;;;;;9.22;52.29;103332.84;5205256;28;20911;-57
2022/03/26 00:08:03;;;;;;;85.90;55.65;;;;;;;9.23;52.18;103336.38;5218885;28;20494;-58
2022/03/26 00:10:36;;;;;;;99.13;59.67;;;;;;;9.22;52.24;103339.91;5206111;28;20425;-59
2022/03/26 00:13:09;;;;;;;94.10;59.45;;;;;;;9.13;52.36;103328.06;5199387;28;20640;-60
2022/03/26 00:15:41;;;;;;;91.23;59.90;;;;;;;9.16;52.48;103343.72;5207812;28;20491;-59
2022/03/26 00:18:17;;;;;;;88.97;56.83;;;;;;;9.15;52.42;103370.19;5211048;28;20497;-59
2022/03/26 00:20:50;;;;;;;94.60;57.63;;;;;;;9.08;52.42;103338.00;5202908;28;20515;-59
2022/03/26 00:23:22;;;;;;;105.22;60.20;;;;;;;9.06;52.52;103339.88;5213053;28;20420;-58
2022/03/26 00:25:58;;;;;;;93.50;58.08;;;;;;;9.05;52.73;103343.44;5205165;28;20453;-58
2022/03/26 00:28:30;;;;;;;92.05;57.38;;;;;;;8.34;52.78;103224.09;5207397;28;20405;-59
2022/03/26 00:31:03;;;;;;;95.25;60.17;;;;;;;8.99;53.01;103338.47;5204206;28;20467;-58
2022/03/26 00:33:37;;;;;;;95.43;59.33;;;;;;;8.96;52.93;103338.63;5217448;28;20478;-59
2022/03/26 00:36:10;;;;;;;93.65;58.33;;;;;;;8.89;53.04;103327.56;5203253;28;20531;-59
2022/03/26 00:38:43;;;;;;;98.22;58.47;;;;;;;8.88;53.12;103325.81;5207586;28;20500;-59
2022/03/26 00:41:15;;;;;;;86.43;55.22;;;;;;;8.93;53.15;103338.78;5202123;28;20708;-60
2022/03/26 00:43:48;;;;;;;93.20;58.38;;;;;;;8.93;53.19;103344.06;5216682;28;20407;-59
2022/03/26 00:46:20;;;;;;;93.55;57.53;;;;;;;8.90;53.33;103344.22;5213425;28;20472;-60
2022/03/26 00:48:56;;;;;;;99.47;60.22;;;;;;;8.88;53.45;103344.28;5217228;28;20475;-58
2022/03/26 00:51:28;;;;;;;102.53;59.27;;;;;;;8.87;53.56;103347.00;5208179;28;20478;-58
2022/03/26 00:54:01;;;;;;;95.50;59.78;;;;;;;8.85;53.42;103348.84;5219042;28;20428;-59
2022/03/26 00:56:33;;;;;;;90.70;58.33;;;;;;;8.82;53.58;103341.09;5215909;28;20439;-59
2022/03/26 00:59:06;;;;;;;96.00;59.93;;;;;;;8.81;53.67;103340.25;5222633;28;20583;-58
2022/03/26 01:01:39;;;;;;;97.73;58.67;;;;;;;8.80;53.49;103342.97;5216135;28;20461;-58
2022/03/26 01:04:13;;;;;;;101.95;60.80;;;;;;;8.77;53.60;103344.81;5205862;28;20512;-59
2022/03/26 01:06:45;;;;;;;96.63;60.63;;;;;;;8.74;53.76;103337.06;5217642;28;21363;-59
2022/03/26 01:09:18;;;;;;;99.40;58.05;;;;;;;8.73;53.61;103337.13;5205525;28;20559;-59
2022/03/26 01:11:50;;;;;;;95.28;58.88;;;;;;;8.45;53.89;103306.03;5210827;28;20430;-61
2022/03/26 01:14:23;;;;;;;98.07;59.10;;;;;;;8.64;53.95;103333.22;5209325;28;20848;-59
2022/03/26 01:16:55;;;;;;;97.93;58.88;;;;;;;8.64;53.77;103332.31;5211354;28;20414;-58
2022/03/26 01:19:29;;;;;;;95.72;58.10;;;;;;;8.43;54.09;103305.28;5202234;28;20393;-58
2022/03/26 01:22:01;;;;;;;92.85;57.40;;;;;;;8.57;53.91;103331.78;5208710;28;20745;-58
2022/03/26 01:24:34;;;;;;;101.25;59.42;;;;;;;8.55;53.98;103338.94;5208417;28;20409;-59
2022/03/26 01:27:08;;;;;;;106.00;61.75;;;;;;;8.53;54.05;103336.34;5209862;28;20499;-58
2022/03/26 01:29:41;;;;;;;95.47;59.42;;;;;;;8.52;54.07;103331.19;5207712;28;20401;-58
2022/03/26 01:32:13;;;;;;;97.83;59.57;;;;;;;8.50;54.18;103333.03;5202135;28;20981;-59
2022/03/26 01:34:47;;;;;;;100.03;61.05;;;;;;;8.47;54.20;103335.81;5206591;28;20413;-59
2022/03/26 01:37:20;;;;;;;93.53;58.97;;;;;;;8.34;54.30;103316.22;5201051;28;20991;-58
2022/03/26 01:39:52;;;;;;;94.45;59.38;;;;;;;8.41;54.17;103330.84;5222683;28;20505;-59
2022/03/26 01:42:25;;;;;;;100.10;59.22;;;;;;;8.36;54.49;103331.03;5207697;28;20422;-54
2022/03/26 01:44:57;;;;;;;104.60;60.13;;;;;;;8.34;54.42;103334.66;5219694;28;20490;-52
2022/03/26 01:47:30;;;;;;;97.28;60.45;;;;;;;8.30;54.49;103333.97;5222085;28;20409;-58
2022/03/26 01:50:05;;;;;;;102.75;61.45;;;;;;;8.28;54.67;103336.66;5208723;28;20406;-58
2022/03/26 01:52:37;;;;;;;96.07;60.03;;;;;;;8.19;54.48;103325.72;5215084;28;20409;-59
2022/03/26 01:55:10;;;;;;;98.50;63.17;;;;;;;8.23;54.56;103328.13;5205117;28;20501;-58
2022/03/26 01:57:43;;;;;;;99.40;62.60;;;;;;;8.12;54.72;103325.16;5208147;28;20404;-59
2022/03/26 02:00:17;;;;;;;101.70;63.65;;;;;;;8.16;54.57;103334.59;5221084;28;20490;-58
2022/03/26 02:02:49;;;;;;;104.82;63.78;;;;;;;8.11;54.73;103315.53;5218669;28;20484;-57
2022/03/26 02:05:23;;;;;;;101.40;59.80;;;;;;;8.13;54.70;103334.75;5210363;28;20404;-59
2022/03/26 02:07:56;;;;;;;112.03;66.22;;;;;;;8.07;54.67;103322.72;5218367;28;20491;-58
2022/03/26 02:10:28;;;;;;;106.20;64.43;;;;;;;8.08;54.78;103331.47;5205383;28;20409;-59
2022/03/26 02:13:02;;;;;;;111.22;65.93;;;;;;;8.06;54.99;103330.72;5199568;28;20797;-58
2022/03/26 02:15:37;;;;;;;104.87;62.20;;;;;;;8.04;54.98;103327.28;5206768;28;20461;-59
2022/03/26 02:18:09;;;;;;;109.80;64.07;;;;;;;8.01;54.96;103327.44;5210588;28;20801;-58
2022/03/26 02:20:45;;;;;;;105.00;62.53;;;;;;;7.96;55.23;103324.16;5203217;28;20432;-57
2022/03/26 02:23:17;;;;;;;107.55;65.90;;;;;;;7.93;55.33;103327.81;5209360;28;20405;-58
2022/03/26 02:25:50;;;;;;;108.20;65.85;;;;;;;7.88;55.29;103318.41;5206960;28;20504;-58
2022/03/26 02:28:23;;;;;;;108.78;66.00;;;;;;;7.90;55.46;103324.44;5213895;28;20493;-58
2022/03/26 02:30:55;;;;;;;118.95;68.15;;;;;;;7.88;55.33;103315.78;5204497;28;20420;-58
2022/03/26 02:33:28;;;;;;;102.72;62.15;;;;;;;7.86;55.48;103319.31;5220515;28;20464;-58
2022/03/26 02:36:01;;;;;;;112.20;67.07;;;;;;;7.84;55.34;103321.19;5222675;28;20451;-54
2022/03/26 02:38:34;;;;;;;107.55;65.93;;;;;;;7.75;55.47;103326.88;5217493;28;20502;-58
2022/03/26 02:41:08;;;;;;;126.55;72.68;;;;;;;7.81;55.56;103312.59;5214592;28;20456;-59
2022/03/26 02:43:40;;;;;;;119.53;67.80;;;;;;;7.80;55.66;103324.91;5217211;28;22035;-59
2022/03/26 02:46:13;;;;;;;122.03;70.18;;;;;;;7.75;55.57;103315.50;5201878;28;20532;-59
2022/03/26 02:48:45;;;;;;;110.50;65.57;;;;;;;7.76;55.62;103317.19;5207246;28;20477;-59
2022/03/26 02:51:19;;;;;;;116.32;68.65;;;;;;;7.50;55.77;103271.06;5202849;28;20413;-59
2022/03/26 02:53:52;;;;;;;120.07;69.32;;;;;;;7.69;55.78;103311.38;5207387;28;20475;-55
2022/03/26 02:56:24;;;;;;;119.30;68.30;;;;;;;7.67;55.97;103309.72;5209975;28;20409;-59
2022/03/26 02:58:56;;;;;;;112.53;65.15;;;;;;;7.60;55.99;103302.13;5209430;28;20538;-58
2022/03/26 03:01:29;;;;;;;112.85;68.05;;;;;;;7.61;56.18;103313.47;5199878;28;20442;-59
2022/03/26 03:04:01;;;;;;;120.00;70.97;;;;;;;7.60;56.00;103306.53;5204273;28;20426;-58
2022/03/26 03:06:36;;;;;;;120.50;67.60;;;;;;;7.42;56.22;103281.06;5205980;28;20565;-58
2022/03/26 03:09:09;;;;;;;114.85;66.75;;;;;;;7.19;56.31;103259.31;5203022;28;20999;-58
2022/03/26 03:11:42;;;;;;;122.85;73.18;;;;;;;7.52;56.32;103304.22;5204747;28;20850;-57
2022/03/26 03:14:14;;;;;;;118.00;70.90;;;;;;;7.36;56.41;103283.03;5177673;28;21010;-60
2022/03/26 03:16:47;;;;;;;127.57;72.53;;;;;;;7.47;56.22;103311.50;5210188;28;20498;-59
2022/03/26 03:19:19;;;;;;;125.47;72.65;;;;;;;7.46;56.43;103308.91;5209322;28;20959;-59
2022/03/26 03:21:53;;;;;;;127.00;71.45;;;;;;;7.44;56.61;103311.63;5210185;28;20425;-58
2022/03/26 03:24:26;;;;;;;123.60;71.35;;;;;;;7.42;56.38;103304.72;5207663;28;20893;-57
2022/03/26 03:26:58;;;;;;;129.50;74.43;;;;;;;7.42;56.46;103307.34;5211965;28;20946;-54
2022/03/26 03:29:31;;;;;;;121.65;73.35;;;;;;;7.25;56.48;103280.06;5206826;28;20451;-58
2022/03/26 03:32:04;;;;;;;122.82;71.13;;;;;;;7.32;56.65;103293.78;5200715;28;20866;-59
2022/03/26 03:34:37;;;;;;;138.85;77.18;;;;;;;7.37;56.74;103316.31;5210165;28;20507;-59
2022/03/26 03:37:11;;;;;;;132.85;70.53;;;;;;;7.34;56.59;103310.31;5206856;28;20995;-59
2022/03/26 03:39:43;;;;;;;129.57;73.35;;;;;;;7.30;56.99;103308.75;5207161;28;20448;-59
2022/03/26 03:42:16;;;;;;;129.98;73.47;;;;;;;7.29;56.74;103315.78;5205051;28;20482;-59
2022/03/26 03:44:48;;;;;;;137.80;77.82;;;;;;;7.28;57.07;103310.63;5200435;28;20405;-59
2022/03/26 03:47:21;;;;;;;135.95;78.57;;;;;;;7.25;56.87;103316.84;5203819;28;20409;-59
2022/03/26 03:49:53;;;;;;;142.13;79.72;;;;;;;7.20;56.81;103308.31;5208077;28;20916;-59
2022/03/26 03:52:27;;;;;;;132.32;73.78;;;;;;;7.09;57.13;103289.50;5207502;28;20414;-58
2022/03/26 03:55:00;;;;;;;139.70;78.88;;;;;;;7.23;57.15;103308.16;5215424;28;20419;-59
2022/03/26 03:57:32;;;;;;;146.77;83.43;;;;;;;7.14;57.07;103303.31;5214444;28;20500;-58
2022/03/26 04:00:07;;;;;;;144.53;77.70;;;;;;;7.18;57.28;103315.38;5209515;28;20513;-59
2022/03/26 04:02:40;;;;;;;144.15;76.55;;;;;;;7.15;57.29;103305.00;5206465;28;20421;-60
2022/03/26 04:05:13;;;;;;;141.00;77.25;;;;;;;7.03;57.18;103287.16;5215105;28;20853;-57
2022/03/26 04:07:47;;;;;;;156.43;81.43;;;;;;;7.14;57.28;103303.31;5201173;28;20429;-53
2022/03/26 04:10:20;;;;;;;147.57;80.40;;;;;;;7.11;57.10;103309.56;5204299;28;20791;-58
2022/03/26 04:12:52;;;;;;;144.30;78.90;;;;;;;7.07;57.28;103301.88;5205486;28;20439;-59
2022/03/26 04:15:25;;;;;;;140.97;77.30;;;;;;;7.07;57.32;103308.00;5212753;28;20409;-58
2022/03/26 04:17:57;;;;;;;149.02;79.97;;;;;;;7.06;57.41;103310.66;5208765;28;20445;-58
2022/03/26 04:20:30;;;;;;;148.05;78.68;;;;;;;7.04;57.41;103307.28;5201644;28;20522;-60
2022/03/26 04:23:04;;;;;;;149.00;82.25;;;;;;;6.97;57.37;103300.56;5210556;28;20875;-59
2022/03/26 04:25:37;;;;;;;154.38;83.13;;;;;;;7.02;57.55;103306.47;5218028;28;20537;-59
2022/03/26 04:28:09;;;;;;;146.57;81.20;;;;;;;6.95;57.76;103300.63;5214237;28;20490;-57
2022/03/26 04:30:42;;;;;;;155.82;84.63;;;;;;;6.57;57.55;103244.50;5212774;28;20424;-59
2022/03/26 04:33:15;;;;;;;167.20;88.97;;;;;;;6.49;57.83;103233.44;5205757;28;20453;-56
2022/03/26 04:35:48;;;;;;;174.68;89.93;;;;;;;6.93;57.88;103305.09;5214457;28;20419;-59
2022/03/26 04:38:21;;;;;;;179.25;88.22;;;;;;;6.92;57.90;103304.25;5211733;28;20407;-58
2022/03/26 04:40:54;;;;;;;162.98;86.13;;;;;;;6.88;57.85;103307.06;5216781;28;20442;-59
2022/03/26 04:43:26;;;;;;;148.52;83.22;;;;;;;6.90;57.95;103306.06;5206419;28;20453;-55
2022/03/26 04:45:59;;;;;;;149.25;82.50;;;;;;;6.83;58.10;103294.13;5204746;28;20416;-62
2022/03/26 04:48:32;;;;;;;161.32;86.90;;;;;;;6.81;58.16;103295.09;5215055;28;21294;-60
2022/03/26 04:51:04;;;;;;;162.32;86.63;;;;;;;6.62;58.23;103259.09;5213873;28;20823;-56
2022/03/26 04:53:38;;;;;;;173.93;90.23;;;;;;;6.83;58.21;103296.75;5216231;28;20506;-59
2022/03/26 04:56:11;;;;;;;159.85;84.90;;;;;;;6.80;58.27;103299.50;5217583;28;20499;-59
2022/03/26 04:58:43;;;;;;;162.57;86.78;;;;;;;6.79;58.01;103287.31;5227940;28;20507;-59
2022/03/26 05:01:16;;;;;;;159.77;87.57;;;;;;;6.79;58.13;103299.59;5214753;28;20424;-59
2022/03/26 05:03:49;;;;;;;175.20;91.03;;;;;;;6.79;58.18;103295.19;5205611;28;20417;-59
2022/03/26 05:06:21;;;;;;;172.07;93.70;;;;;;;6.68;58.21;103279.84;5207078;28;20476;-59
2022/03/26 05:08:55;;;;;;;170.93;93.07;;;;;;;6.73;58.14;103291.97;5207067;28;20444;-59
2022/03/26 05:11:28;;;;;;;187.15;95.00;;;;;;;6.51;58.50;103263.13;5202720;28;20518;-59
2022/03/26 05:14:00;;;;;;;184.00;91.82;;;;;;;6.74;58.57;103288.41;5207181;28;20435;-59
2022/03/26 05:16:33;;;;;;;179.83;93.43;;;;;;;6.73;58.35;103290.19;5214293;28;20960;-59
2022/03/26 05:19:05;;;;;;;179.30;95.65;;;;;;;6.72;58.60;103296.38;5203925;28;20486;-59
2022/03/26 05:21:38;;;;;;;194.35;94.35;;;;;;;6.71;58.78;103299.88;5213713;28;20435;-59
2022/03/26 05:24:12;;;;;;;186.27;95.85;;;;;;;6.70;58.66;103298.19;5211765;28;20774;-60
2022/03/26 05:26:44;;;;;;;182.40;92.88;;;;;;;6.69;58.56;103301.75;5215871;28;20451;-59
2022/03/26 05:29:17;;;;;;;187.73;96.78;;;;;;;6.68;58.50;103300.03;5210435;28;20420;-57
2022/03/26 05:31:49;;;;;;;177.85;93.57;;;;;;;6.64;58.37;103293.19;5215678;28;20478;-59
2022/03/26 05:34:21;;;;;;;171.38;92.70;;;;;;;6.67;58.64;103298.31;5214257;28;20846;-60
2022/03/26 05:36:54;;;;;;;180.10;92.30;;;;;;;6.67;58.77;103303.56;5204706;28;20497;-59
2022/03/26 05:39:28;;;;;;;193.40;98.15;;;;;;;6.68;58.85;103302.66;5204745;28;20838;-58
2022/03/26 05:42:01;;;;;;;176.52;92.75;;;;;;;6.58;58.79;103288.19;5204629;28;20971;-58
2022/03/26 05:44:34;;;;;;;176.02;90.78;;;;;;;6.73;58.58;103308.56;5205219;28;20405;-58
2022/03/26 05:47:07;;;;;;;179.02;94.88;;;;;;;6.74;58.71;103305.00;5187332;28;20920;-58
2022/03/26 05:49:40;;;;;;;173.27;90.70;;;;;;;6.76;58.97;103308.44;5202667;28;20448;-57
2022/03/26 05:52:12;;;;;;;178.55;94.03;;;;;;;6.80;58.75;103304.75;5213811;28;21221;-56
2022/03/26 05:54:46;;;;;;;181.13;95.03;;;;;;;6.84;59.02;103310.72;5212340;28;20823;-58
2022/03/26 05:57:19;;;;;;;167.93;89.45;;;;;;;6.84;58.91;103308.09;5212683;28;20467;-58
2022/03/26 05:59:52;;;;;;;182.20;98.32;;;;;;;6.76;58.98;103294.47;5210013;28;20722;-59
2022/03/26 06:02:24;;;;;;;175.85;93.68;;;;;;;6.95;58.90;103318.19;5210389;28;20826;-59
2022/03/26 06:04:56;;;;;;;165.23;89.80;;;;;;;7.00;59.23;103326.69;5200585;28;20422;-60
2022/03/26 06:07:29;;;;;;;168.32;93.15;;;;;;;7.05;59.17;103332.63;5211761;28;20874;-61
2022/03/26 06:10:04;;;;;;;168.13;90.00;;;;;;;7.09;59.11;103327.19;5225010;28;20407;-56
2022/03/26 06:12:37;;;;;;;168.23;89.45;;;;;;;7.12;58.71;103327.06;5215426;28;20415;-58
2022/03/26 06:15:10;;;;;;;168.50;90.40;;;;;;;7.22;58.91;103337.16;5197576;28;20453;-58
2022/03/26 06:17:45;;;;;;;163.93;88.00;;;;;;;7.21;59.09;103336.28;5214952;28;20512;-57
2022/03/26 06:20:18;;;;;;;154.50;86.72;;;;;;;7.36;58.91;103342.66;5206768;28;21858;-59
2022/03/26 06:22:50;;;;;;;152.88;87.00;;;;;;;7.44;58.96;103345.81;5216144;28;20456;-59
2022/03/26 06:25:24;;;;;;;165.55;90.78;;;;;;;7.52;59.13;103348.09;5216395;28;20937;-59
2022/03/26 06:27:57;;;;;;;163.13;90.03;;;;;;;7.60;59.09;103343.34;5236209;28;20400;-58
2022/03/26 06:30:29;;;;;;;153.85;89.25;;;;;;;7.68;58.93;103346.50;5232562;28;20480;-58
2022/03/26 06:33:02;;;;;;;165.98;92.18;;;;;;;7.67;59.07;103323.72;5204362;28;20414;-58
2022/03/26 06:35:35;;;;;;;160.20;89.32;;;;;;;7.86;58.89;103350.03;5209924;28;20428;-57
2022/03/26 06:38:08;;;;;;;169.05;94.88;;;;;;;7.97;59.00;103345.16;5203929;28;20405;-56
2022/03/26 06:40:42;;;;;;;173.98;96.85;;;;;;;8.12;58.87;103351.47;5211036;28;20594;-57
2022/03/26 06:43:14;;;;;;;175.57;98.45;;;;;;;8.27;58.98;103350.75;5218143;28;20501;-59
2022/03/26 06:45:47;;;;;;;157.98;89.82;;;;;;;8.40;59.15;103360.75;5207859;28;20976;-51
2022/03/26 06:48:19;;;;;;;163.18;94.30;;;;;;;8.70;58.47;103353.97;5209888;28;20439;-57
2022/03/26 06:50:53;;;;;;;160.68;92.70;;;;;;;9.77;57.99;103357.25;5207883;28;20522;-57
2022/03/26 06:53:25;;;;;;;154.38;88.95;;;;;;;11.39;56.49;103355.88;5211345;28;20411;-55
2022/03/26 06:55:59;;;;;;;140.20;82.50;;;;;;;12.90;55.37;103345.31;5210660;28;20540;-55
2022/03/26 06:58:32;;;;;;;136.88;79.53;;;;;;;14.38;54.33;103351.72;5198794;28;20590;-56
2022/03/26 07:01:05;;;;;;;148.63;88.70;;;;;;;15.63;53.24;103357.22;5209904;28;20501;-54
2022/03/26 07:03:37;;;;;;;152.13;89.18;;;;;;;16.65;52.23;103359.69;5204471;28;20475;-55
2022/03/26 07:06:09;;;;;;;138.00;82.55;;;;;;;17.58;51.18;103372.25;5203941;28;20965;-54
2022/03/26 07:08:42;;;;;;;142.70;85.45;;;;;;;18.46;49.86;103360.81;5203421;28;20524;-54
2022/03/26 07:11:16;;;;;;;132.48;82.55;;;;;;;19.32;48.80;103359.03;5208441;28;20409;-52
2022/03/26 07:13:49;;;;;;;132.00;80.75;;;;;;;20.15;47.56;103364.41;5217511;28;20399;-54
2022/03/26 07:16:21;;;;;;;136.70;82.83;;;;;;;20.90;46.53;103364.09;5201634;28;20405;-54
2022/03/26 07:18:55;;;;;;;137.48;83.03;;;;;;;21.55;45.56;103367.19;5225121;28;20904;-54
2022/03/26 07:21:28;;;;;;;132.43;81.75;;;;;;;22.21;44.50;103372.84;5204775;28;20405;-56
2022/03/26 07:24:00;;;;;;;135.20;78.90;;;;;;;22.85;43.62;103371.16;5204199;28;20416;-55
2022/03/26 07:26:34;;;;;;;134.13;81.32;;;;;;;23.44;42.40;103371.75;5212709;28;20451;-54
2022/03/26 07:29:07;;;;;;;127.60;80.03;;;;;;;24.00;41.45;103374.38;5216193;28;20502;-56
2022/03/26 07:31:40;;;;;;;127.07;78.07;;;;;;;24.38;40.93;103375.31;5201725;28;20425;-53
2022/03/26 07:34:15;;;;;;;120.70;76.73;;;;;;;24.80;39.98;103376.66;5206706;28;20475;-54
2022/03/26 07:36:48;;;;;;;119.82;74.18;;;;;;;25.19;39.23;103367.53;5194392;28;20501;-54
2022/03/26 07:39:20;;;;;;;112.45;67.22;;;;;;;25.74;38.28;103382.41;5211786;28;20499;-53
2022/03/26 07:41:55;;;;;;;109.68;68.90;;;;;;;25.81;37.57;103350.03;5205123;28;20652;-54
2022/03/26 07:44:27;;;;;;;107.85;66.20;;;;;;;26.35;36.86;103389.34;5198104;28;20427;-51
2022/03/26 07:47:01;;;;;;;112.72;65.68;;;;;;;26.74;36.19;103382.66;5213019;28;20485;-56
2022/03/26 07:49:34;;;;;;;104.55;63.58;;;;;;;27.09;35.33;103369.97;5210722;28;20479;-52
2022/03/26 07:52:08;;;;;;;103.25;61.55;;;;;;;27.52;34.72;103378.78;5192881;28;20415;-54
2022/03/26 07:54:40;;;;;;;91.28;57.28;;;;;;;27.94;34.02;103379.63;5207949;28;20424;-55
2022/03/26 07:57:14;;;;;;;93.70;58.97;;;;;;;28.26;33.35;103379.88;5196134;28;20492;-55
2022/03/26 07:59:47;;;;;;;91.67;56.90;;;;;;;28.57;32.89;103392.06;5239024;28;20463;-54
2022/03/26 08:02:19;;;;;;;99.47;59.35;;;;;;;28.80;32.23;103389.75;5236982;28;20547;-55
2022/03/26 08:04:52;;;;;;;92.75;57.90;;;;;;;28.96;31.83;103400.22;5223901;28;20498;-55
2022/03/26 08:07:24;;;;;;;94.47;58.85;;;;;;;29.05;31.54;103403.59;5232814;28;20479;-56
2022/03/26 08:09:57;;;;;;;90.23;56.53;;;;;;;29.13;31.24;103410.66;5229683;28;20403;-57
2022/03/26 08:12:31;;;;;;;91.55;55.33;;;;;;;28.96;30.77;103386.59;5224987;28;20485;-58
2022/03/26 08:15:03;;;;;;;94.95;55.72;;;;;;;28.90;30.73;103417.38;5229715;28;20460;-51
2022/03/26 08:17:36;;;;;;;88.07;54.87;;;;;;;28.79;30.57;103404.41;5210275;28;20993;-57
2022/03/26 08:20:10;;;;;;;94.32;57.50;;;;;;;28.75;30.40;103392.28;5220242;28;20441;-55
2022/03/26 08:22:43;;;;;;;89.60;57.42;;;;;;;28.42;30.43;103420.28;5208801;28;20614;-50
2022/03/26 08:26:19;;;;;;;88.95;55.67;;;;;;;27.97;30.74;103416.41;5218794;28;20492;-57
2022/03/26 08:28:11;;;;;;;93.88;60.05;;;;;;;27.45;30.78;103426.78;5227037;28;20402;-52
2022/03/26 08:30:44;;;;;;;103.90;61.45;;;;;;;26.59;31.69;103435.06;5228809;28;20415;-55
2022/03/26 08:33:24;;;;;;;105.00;61.90;;;;;;;25.85;32.14;103432.53;5228033;28;20434;-55
2022/03/26 08:35:57;;;;;;;108.18;63.10;;;;;;;25.23;32.47;103431.03;5218316;28;20407;-55
2022/03/26 08:38:29;;;;;;;107.47;65.53;;;;;;;24.84;32.85;103440.16;5223553;28;20443;-49
2022/03/26 08:41:02;;;;;;;110.35;65.88;;;;;;;24.56;32.86;103437.19;5212310;28;20457;-58
2022/03/26 08:43:36;;;;;;;109.97;66.55;;;;;;;24.14;33.23;103441.09;5178771;28;20497;-54
2022/03/26 08:46:09;;;;;;;106.53;62.47;;;;;;;23.74;33.55;103447.53;5180812;28;20415;-53
2022/03/26 08:48:41;;;;;;;108.93;65.90;;;;;;;23.69;33.61;103439.09;5183107;28;20482;-53
2022/03/26 08:51:14;;;;;;;110.22;65.80;;;;;;;23.64;33.75;103446.88;5168138;28;20484;-54
2022/03/26 08:53:47;;;;;;;110.68;63.15;;;;;;;23.85;33.52;103443.63;5187132;28;20829;-54
2022/03/26 08:56:19;;;;;;;108.07;62.63;;;;;;;23.92;33.64;103420.31;5183055;28;21741;-52
2022/03/26 08:58:53;;;;;;;119.05;63.03;;;;;;;23.42;34.10;103441.19;5176927;28;20473;-52
2022/03/26 09:01:26;;;;;;;110.18;59.92;;;;;;;22.99;34.31;103442.44;5179161;28;20479;-54
2022/03/26 09:03:58;;;;;;;109.75;61.30;;;;;;;22.43;34.79;103444.88;5148371;28;20492;-49
2022/03/26 09:06:31;;;;;;;102.03;59.05;;;;;;;21.94;35.32;103444.69;5169358;28;20866;-54
2022/03/26 09:09:04;;;;;;;105.80;60.95;;;;;;;21.50;35.63;103444.81;5174909;28;20415;-51
2022/03/26 09:11:37;;;;;;;106.10;61.10;;;;;;;21.24;35.76;103438.56;5179517;28;20422;-55
2022/03/26 09:14:12;;;;;;;108.47;62.88;;;;;;;20.99;36.08;103441.06;5176780;28;20834;-56
2022/03/26 09:16:45;;;;;;;105.97;61.92;;;;;;;20.53;36.25;103416.13;5178118;28;20434;-55
2022/03/26 09:19:18;;;;;;;102.55;61.75;;;;;;;20.36;36.57;103454.53;5172909;28;20493;-55
2022/03/26 09:21:50;;;;;;;110.13;64.10;;;;;;;20.04;36.73;103453.16;5175008;28;20496;-54
2022/03/26 09:24:23;;;;;;;105.22;63.88;;;;;;;19.92;36.89;103452.50;5164025;28;20493;-55
2022/03/26 09:26:55;;;;;;;118.20;65.20;;;;;;;19.67;37.13;103454.00;5149944;28;20415;-55
2022/03/26 09:29:29;;;;;;;111.25;63.65;;;;;;;19.28;37.41;103438.00;5150707;28;20512;-56
2022/03/26 09:32:02;;;;;;;110.82;64.53;;;;;;;19.07;37.65;103453.38;5155173;28;20397;-55
2022/03/26 09:34:35;;;;;;;105.40;60.63;;;;;;;18.87;37.65;103452.56;5173194;28;20496;-55
2022/03/26 09:37:07;;;;;;;102.75;56.53;;;;;;;18.79;37.66;103453.25;5171306;28;20494;-54
2022/03/26 09:39:40;;;;;;;115.25;61.60;;;;;;;18.52;37.90;103453.03;5179444;28;20953;-55
2022/03/26 09:42:14;;;;;;;117.10;62.75;;;;;;;18.23;38.21;103453.84;5189961;28;20425;-56
2022/03/26 09:44:51;;;;;;;113.72;66.20;;;;;;;18.12;38.07;103453.97;5203894;28;20432;-52
2022/03/26 09:47:24;;;;;;;107.93;61.88;;;;;;;17.99;38.36;103446.16;5206232;28;20413;-57
2022/03/26 09:49:57;;;;;;;129.25;65.43;;;;;;;18.08;38.13;103444.50;5199685;28;20795;-55
2022/03/26 09:52:30;;;;;;;112.57;62.30;;;;;;;18.12;38.18;103437.91;5187795;28;20476;-55
2022/03/26 09:55:05;;;;;;;117.95;64.10;;;;;;;18.11;38.30;103446.91;5203366;28;20758;-56
2022/03/26 09:57:38;;;;;;;114.18;63.25;;;;;;;18.28;38.14;103438.22;5205387;28;20766;-54
2022/03/26 10:00:14;;;;;;;121.03;64.05;;;;;;;18.24;38.09;103442.19;5201925;28;20615;-55
2022/03/26 10:02:47;;;;;;;115.35;63.03;;;;;;;18.32;37.98;103441.47;5199021;28;20403;-54
2022/03/26 10:05:20;;;;;;;116.22;63.60;;;;;;;18.39;38.01;103435.41;5206118;28;20410;-55
2022/03/26 10:07:53;;;;;;;115.60;65.13;;;;;;;18.58;37.80;103433.75;5204575;28;20442;-55
2022/03/26 10:10:27;;;;;;;117.25;64.85;;;;;;;18.66;37.69;103441.94;5203046;28;20455;-57
2022/03/26 10:12:59;;;;;;;114.43;62.85;;;;;;;18.71;37.58;103429.00;5216253;28;20752;-55
2022/03/26 10:15:33;;;;;;;109.80;64.53;;;;;;;18.75;37.52;103434.94;5206656;28;20413;-54
2022/03/26 10:18:12;;;;;;;119.20;63.58;;;;;;;18.72;37.67;103430.69;5204933;28;20967;-54
2022/03/26 10:20:59;;;;;;;117.50;65.30;;;;;;;18.74;37.59;103435.94;5220759;28;20427;-54
2022/03/26 10:23:32;;;;;;;112.40;59.10;;;;;;;18.69;37.64;103422.94;5194781;28;20452;-55
2022/03/26 10:26:13;;;;;;;107.82;58.15;;;;;;;18.55;37.69;103408.16;5209396;28;20407;-54
2022/03/26 10:28:54;;;;;;;102.97;58.00;;;;;;;18.70;37.81;103427.28;5178476;28;20437;-55
2022/03/26 10:34:24;;;;;;;105.45;51.35;;;;;;;18.36;37.91;103427.66;5217546;28;20577;-52
2022/03/26 10:37:01;;;;;;;101.70;56.55;;;;;;;18.07;38.23;103400.88;5200827;28;20419;-55
2022/03/26 10:39:35;;;;;;;106.40;55.92;;;;;;;18.11;37.99;103409.47;5201558;28;20413;-55
2022/03/26 10:42:08;;;;;;;83.15;44.00;;;;;;;18.24;38.01;103417.22;5208671;28;20443;-55
2022/03/26 10:44:41;;;;;;;89.93;46.72;;;;;;;18.19;38.04;103423.00;5197354;28;20477;-55
2022/03/26 10:47:17;;;;;;;249.93;65.40;;;;;;;18.07;38.15;103405.38;5212243;28;20483;-54
2022/03/26 10:49:49;;;;;;;88.55;45.28;;;;;;;18.40;37.73;103426.44;5209357;28;20475;-54
2022/03/26 10:52:22;;;;;;;87.88;44.80;;;;;;;18.62;37.69;103414.63;5205342;28;20847;-57
2022/03/26 10:54:54;;;;;;;77.22;40.53;;;;;;;18.54;37.60;103405.59;5197347;28;20761;-56
2022/03/26 10:57:27;;;;;;;76.43;41.22;;;;;;;18.65;37.46;103416.19;5216386;28;20422;-54
2022/03/26 11:00:00;;;;;;;74.63;37.20;;;;;;;18.64;37.71;103411.78;5219619;28;20415;-58
2022/03/26 11:02:34;;;;;;;70.18;37.22;;;;;;;18.80;37.21;103409.44;5208155;28;22510;-55
2022/03/26 11:05:08;;;;;;;73.03;39.10;;;;;;;18.78;36.97;103398.03;5179279;28;20416;-54
2022/03/26 11:07:42;;;;;;;58.80;30.90;;;;;;;18.99;37.04;103410.41;5200964;28;20424;-59
2022/03/26 11:10:15;;;;;;;57.22;31.95;;;;;;;18.98;36.99;103403.34;5203700;28;20467;-53
2022/03/26 11:12:48;;;;;;;61.37;31.83;;;;;;;18.99;36.67;103405.06;5212632;28;20487;-54
2022/03/26 11:15:27;;;;;;;66.72;32.72;;;;;;;19.07;36.66;103403.34;5212723;28;20418;-54
2022/03/26 11:18:33;;;;;;;55.95;30.25;;;;;;;19.01;36.75;103395.88;5210366;28;20415;-56
2022/03/26 11:21:39;;;;;;;59.03;28.15;;;;;;;19.04;36.57;103386.72;5200910;28;20409;-56
2022/03/26 11:24:29;;;;;;;59.47;29.90;;;;;;;19.25;36.48;103400.75;5202276;28;20486;-56
2022/03/26 11:27:29;;;;;;;65.03;30.33;;;;;;;19.34;36.29;103394.53;5210658;28;20448;-58
2022/03/26 11:30:09;;;;;;;55.30;29.13;;;;;;;19.25;36.31;103398.09;5185805;28;20420;-59
2022/03/26 11:32:44;;;;;;;52.40;27.88;;;;;;;19.08;36.38;103396.16;5205440;28;20429;-55
2022/03/26 11:35:20;;;;;;;52.10;29.57;;;;;;;18.94;36.48;103397.44;5211467;28;20788;-54
2022/03/26 11:37:54;;;;;;;54.20;29.60;;;;;;;18.50;36.48;103350.66;5207667;28;20399;-55
2022/03/26 11:40:43;;;;;;;58.70;31.27;;;;;;;18.88;36.37;103393.50;5202748;28;20457;-54